Time;durP1;ratioP1;P1;durP2;ratioP2;P2;SDS_P1;SDS_P2;PMS_P1;PMS_P2;Temp;Humidity;BMP_temperature;BMP_pressure;BME280_temperature;BME280_humidity;BME280_pressure;Samples;Min_cycle;Max_cycle;Signal;HPM_P1;HPM_P2
2023/10/16 00:02:11;;;;;;;7.37;2.27;;;;;;;;;;5056055;28;20486;-71
2023/10/16 00:04:37;;;;;;;6.75;2.13;;;;;;;;;;5055897;28;20642;-71
2023/10/16 00:07:03;;;;;;;9.18;2.25;;;;;;;;;;5037979;28;20010;-72
2023/10/16 00:09:28;;;;;;;6.47;2.50;;;;;;;;;;5055768;28;20570;-70
2023/10/16 00:11:54;;;;;;;8.45;2.20;;;;;;;;;;5055771;28;20385;-72
2023/10/16 00:14:23;;;;;;;10.10;2.57;;;;;;;;;;5055634;28;20064;-71
2023/10/16 00:16:50;;;;;;;7.47;2.10;;;;;;;;;;5037711;28;20303;-71
2023/10/16 00:19:15;;;;;;;9.90;2.10;;;;;;;;;;5055426;28;20017;-71
2023/10/16 00:21:43;;;;;;;10.38;2.40;;;;;;;;;;5055556;28;20112;-71
2023/10/16 00:24:12;;;;;;;5.22;1.98;;;;;;;;;;5055396;28;20025;-71
2023/10/16 00:27:00;;;;;;;10.57;2.30;;;;;;;;;;5055347;28;20017;-71
2023/10/16 00:29:24;;;;;;;7.50;2.30;;;;;;;;;;5055194;28;20052;-70
2023/10/16 00:31:51;;;;;;;7.10;2.10;;;;;;;;;;5037501;28;20017;-72
2023/10/16 00:34:19;;;;;;;8.30;2.35;;;;;;;;;;5037375;28;20059;-70
2023/10/16 00:36:45;;;;;;;6.70;2.30;;;;;;;;;;5055296;28;20021;-70
2023/10/16 00:39:13;;;;;;;9.55;2.95;;;;;;;;;;5037261;28;20056;-71
2023/10/16 00:41:39;;;;;;;8.93;2.40;;;;;;;;;;5055317;28;20056;-71
2023/10/16 00:44:05;;;;;;;11.60;2.60;;;;;;;;;;5055095;28;20499;-71
2023/10/16 00:46:32;;;;;;;10.13;2.53;;;;;;;;;;5055047;28;20021;-72
2023/10/16 00:48:58;;;;;;;5.85;2.30;;;;;;;;;;5055208;28;20075;-72
2023/10/16 00:51:24;;;;;;;7.10;2.50;;;;;;;;;;5037233;28;20111;-72
2023/10/16 00:53:50;;;;;;;7.15;2.28;;;;;;;;;;5055010;28;20013;-72
2023/10/16 00:56:15;;;;;;;11.97;2.37;;;;;;;;;;5055148;28;20048;-71
2023/10/16 00:58:41;;;;;;;6.70;2.50;;;;;;;;;;5038039;28;20274;-71
2023/10/16 01:01:12;;;;;;;6.38;2.40;;;;;;;;;;5063081;28;20021;-71
2023/10/16 01:03:38;;;;;;;11.68;2.67;;;;;;;;;;5061795;28;20032;-71
2023/10/16 01:06:16;;;;;;;8.73;2.60;;;;;;;;;;5062570;28;20029;-72
2023/10/16 01:08:45;;;;;;;7.65;2.65;;;;;;;;;;5062909;28;20013;-72
2023/10/16 01:11:14;;;;;;;8.10;2.50;;;;;;;;;;5061823;28;20017;-71
2023/10/16 01:13:39;;;;;;;8.43;2.47;;;;;;;;;;5061117;28;20040;-72
2023/10/16 01:16:07;;;;;;;8.37;2.70;;;;;;;;;;5055223;28;20013;-72
2023/10/16 01:18:32;;;;;;;9.82;2.80;;;;;;;;;;5037322;28;20267;-71
2023/10/16 01:20:57;;;;;;;7.10;2.93;;;;;;;;;;5037347;28;20025;-71
2023/10/16 01:23:23;;;;;;;8.63;2.67;;;;;;;;;;5054758;28;20317;-71
2023/10/16 01:25:49;;;;;;;10.93;3.13;;;;;;;;;;5054742;28;20123;-71
2023/10/16 01:28:18;;;;;;;9.98;2.72;;;;;;;;;;5054906;28;20456;-71
2023/10/16 01:30:45;;;;;;;8.88;2.83;;;;;;;;;;5036564;28;20013;-71
2023/10/16 01:33:10;;;;;;;5.63;2.60;;;;;;;;;;5054157;28;20029;-71
2023/10/16 01:35:38;;;;;;;7.43;2.80;;;;;;;;;;5036332;28;20370;-71
2023/10/16 01:38:15;;;;;;;11.15;2.72;;;;;;;;;;5036077;28;20283;-71
2023/10/16 01:41:05;;;;;;;5.22;2.50;;;;;;;;;;5054485;28;20108;-71
2023/10/16 01:43:33;;;;;;;8.13;2.50;;;;;;;;;;5053995;28;20476;-71
2023/10/16 01:46:08;;;;;;;9.02;2.53;;;;;;;;;;5036049;28;20049;-72
2023/10/16 01:48:39;;;;;;;10.20;2.70;;;;;;;;;;5053904;28;20025;-72
2023/10/16 01:51:05;;;;;;;12.10;2.92;;;;;;;;;;5035788;28;20502;-72
2023/10/16 01:53:33;;;;;;;6.68;2.78;;;;;;;;;;5053938;28;20025;-72
2023/10/16 01:55:58;;;;;;;7.78;2.72;;;;;;;;;;5053521;28;20051;-72
2023/10/16 01:58:24;;;;;;;6.73;3.00;;;;;;;;;;5053994;28;20103;-72
2023/10/16 02:00:51;;;;;;;7.22;2.80;;;;;;;;;;5053725;28;20270;-71
2023/10/16 02:03:17;;;;;;;7.43;2.63;;;;;;;;;;5053727;28;20024;-72
2023/10/16 02:05:45;;;;;;;8.52;2.80;;;;;;;;;;5053620;28;20476;-71
2023/10/16 02:08:12;;;;;;;6.88;2.70;;;;;;;;;;5053586;28;20017;-71
2023/10/16 02:10:37;;;;;;;7.03;2.85;;;;;;;;;;5035857;28;20086;-71
2023/10/16 02:13:03;;;;;;;7.97;2.70;;;;;;;;;;5053376;28;20053;-72
2023/10/16 02:15:29;;;;;;;8.40;2.72;;;;;;;;;;5035496;28;20690;-72
2023/10/16 02:17:54;;;;;;;8.57;2.78;;;;;;;;;;5053608;28;20025;-72
2023/10/16 02:20:20;;;;;;;8.73;3.22;;;;;;;;;;5053400;28;20048;-72
2023/10/16 02:22:46;;;;;;;7.57;3.10;;;;;;;;;;5053221;28;20017;-72
2023/10/16 02:25:12;;;;;;;7.07;3.13;;;;;;;;;;5053345;28;20032;-72
2023/10/16 02:27:37;;;;;;;5.88;2.67;;;;;;;;;;5053172;28;20380;-72
2023/10/16 02:32:53;;;;;;;7.80;2.80;;;;;;;;;;5053475;28;20067;-71
2023/10/16 02:35:19;;;;;;;6.97;2.80;;;;;;;;;;5053303;28;20013;-71
2023/10/16 02:37:44;;;;;;;13.85;2.80;;;;;;;;;;5053294;28;20108;-71
2023/10/16 02:40:10;;;;;;;11.37;3.00;;;;;;;;;;5035631;28;20064;-71
2023/10/16 02:42:41;;;;;;;6.50;2.40;;;;;;;;;;5053399;28;20267;-71
2023/10/16 02:45:24;;;;;;;5.43;2.30;;;;;;;;;;5053218;28;20487;-72
2023/10/16 02:47:49;;;;;;;;;;;;;;;;;;5035639;28;20116;-71
2023/10/16 02:50:15;;;;;;;5.10;2.23;;;;;;;;;;5053234;28;20394;-70
2023/10/16 02:52:40;;;;;;;9.68;2.40;;;;;;;;;;5053179;28;20266;-70
2023/10/16 02:55:06;;;;;;;8.67;2.17;;;;;;;;;;5052952;28;20021;-71
2023/10/16 02:57:31;;;;;;;7.70;2.35;;;;;;;;;;5052868;28;20260;-71
2023/10/16 02:59:56;;;;;;;6.30;2.17;;;;;;;;;;5052855;28;20019;-71
2023/10/16 03:02:27;;;;;;;5.53;2.17;;;;;;;;;;5053161;28;20020;-70
2023/10/16 03:04:52;;;;;;;7.97;2.10;;;;;;;;;;5052943;28;20108;-71
2023/10/16 03:07:22;;;;;;;4.03;1.90;;;;;;;;;;5053070;28;20467;-71
2023/10/16 03:09:49;;;;;;;5.38;1.92;;;;;;;;;;5038860;28;20379;-71
2023/10/16 03:12:15;;;;;;;5.70;1.65;;;;;;;;;;5056758;28;20377;-71
2023/10/16 03:14:51;;;;;;;9.50;2.20;;;;;;;;;;5056757;28;20059;-71
2023/10/16 03:17:34;;;;;;;6.25;1.80;;;;;;;;;;5056690;28;20052;-70
2023/10/16 03:20:00;;;;;;;6.45;2.30;;;;;;;;;;5038765;28;20451;-71
2023/10/16 03:22:28;;;;;;;9.85;2.40;;;;;;;;;;5056596;28;20446;-71
2023/10/16 03:24:59;;;;;;;6.47;2.08;;;;;;;;;;5056429;28;20017;-71
2023/10/16 03:27:28;;;;;;;4.65;1.90;;;;;;;;;;5056623;28;20464;-72
2023/10/16 03:29:54;;;;;;;5.70;2.00;;;;;;;;;;5056481;28;20017;-71
2023/10/16 03:32:20;;;;;;;6.18;2.30;;;;;;;;;;5038606;28;20376;-71
2023/10/16 03:34:45;;;;;;;9.30;2.10;;;;;;;;;;5056364;28;20013;-71
2023/10/16 03:37:10;;;;;;;8.55;2.10;;;;;;;;;;5056368;28;20128;-71
2023/10/16 03:39:36;;;;;;;7.65;2.00;;;;;;;;;;5056354;28;20267;-71
2023/10/16 03:42:01;;;;;;;6.43;1.98;;;;;;;;;;5056444;28;20024;-71
2023/10/16 03:44:26;;;;;;;6.85;1.92;;;;;;;;;;5056408;28;20380;-71
2023/10/16 03:46:52;;;;;;;5.47;2.00;;;;;;;;;;5038680;28;20460;-71
2023/10/16 03:49:18;;;;;;;7.55;2.17;;;;;;;;;;5056054;28;20256;-71
2023/10/16 03:51:45;;;;;;;4.05;1.88;;;;;;;;;;5056142;28;20020;-71
2023/10/16 03:54:12;;;;;;;5.88;1.60;;;;;;;;;;5056145;28;20179;-72
2023/10/16 03:56:37;;;;;;;9.15;2.05;;;;;;;;;;5056214;28;20031;-71
2023/10/16 03:59:03;;;;;;;5.85;2.10;;;;;;;;;;5056096;28;20464;-71
2023/10/16 04:01:28;;;;;;;4.20;1.60;;;;;;;;;;5055982;28;20067;-71
2023/10/16 04:03:56;;;;;;;4.88;2.20;;;;;;;;;;5056078;28;20017;-71
2023/10/16 04:06:22;;;;;;;5.95;1.65;;;;;;;;;;5055968;28;20071;-71
2023/10/16 04:08:51;;;;;;;3.72;1.50;;;;;;;;;;5055951;28;20104;-72
2023/10/16 04:11:17;;;;;;;8.70;2.17;;;;;;;;;;5055546;28;20094;-71
2023/10/16 04:13:48;;;;;;;5.55;1.70;;;;;;;;;;5055784;28;20422;-71
2023/10/16 04:21:40;;;;;;;6.47;2.22;;;;;;;;;;5055511;28;20457;-72
2023/10/16 04:24:19;;;;;;;7.95;2.15;;;;;;;;;;5037543;28;20028;-71
2023/10/16 04:26:56;;;;;;;6.78;2.35;;;;;;;;;;5037731;28;20075;-71
2023/10/16 04:29:34;;;;;;;4.85;2.17;;;;;;;;;;5037613;28;20460;-71
2023/10/16 04:37:49;;;;;;;6.73;2.57;;;;;;;;;;5055600;28;20115;-71
2023/10/16 04:48:07;;;;;;;5.00;2.42;;;;;;;;;;5055292;28;20095;-71
2023/10/16 04:58:47;;;;;;;6.35;2.90;;;;;;;;;;5054767;28;20028;-71
2023/10/16 05:00:57;;;;;;;6.35;3.00;;;;;;;;;;5046430;28;20086;-70
2023/10/16 05:06:14;;;;;;;9.07;2.45;;;;;;;;;;5054724;28;20131;-71
2023/10/16 06:14:11;;;;;;;7.80;2.85;;;;;;;;;;5053704;28;20079;-71
2023/10/16 06:16:40;;;;;;;7.68;3.13;;;;;;;;;;5035476;28;20027;-71
2023/10/16 06:19:17;;;;;;;12.35;3.65;;;;;;;;;;5053403;28;20029;-71
2023/10/16 06:21:50;;;;;;;7.75;3.05;;;;;;;;;;5035383;28;20021;-71
2023/10/16 06:26:59;;;;;;;8.32;3.20;;;;;;;;;;5053295;28;20056;-72
2023/10/16 06:29:25;;;;;;;8.18;3.30;;;;;;;;;;5035484;28;20024;-72
2023/10/16 06:31:53;;;;;;;6.53;3.28;;;;;;;;;;5053397;28;20021;-74
2023/10/16 06:34:18;;;;;;;6.80;3.50;;;;;;;;;;5053442;28;20104;-72
2023/10/16 06:36:44;;;;;;;7.75;3.25;;;;;;;;;;5053270;28;20064;-72
2023/10/16 06:39:22;;;;;;;7.72;3.13;;;;;;;;;;5035793;28;20434;-72
2023/10/16 06:41:47;;;;;;;9.45;3.40;;;;;;;;;;5055298;28;20032;-72
2023/10/16 06:44:16;;;;;;;7.60;3.45;;;;;;;;;;5053045;28;20017;-72
2023/10/16 06:46:41;;;;;;;6.38;3.45;;;;;;;;;;5053027;28;20013;-72
2023/10/16 06:49:09;;;;;;;13.70;3.00;;;;;;;;;;5053010;28;20358;-72
2023/10/16 06:51:34;;;;;;;7.53;3.53;;;;;;;;;;5051883;28;20273;-72
2023/10/16 06:54:01;;;;;;;7.15;3.40;;;;;;;;;;5052944;28;20025;-72
2023/10/16 06:56:34;;;;;;;7.43;3.50;;;;;;;;;;5053059;28;20070;-72
2023/10/16 06:59:00;;;;;;;;;;;;;;;;;;5035537;28;20025;-71
2023/10/16 07:01:27;;;;;;;6.33;3.33;;;;;;;;;;5052984;28;19916;-71
2023/10/16 07:04:05;;;;;;;10.02;3.55;;;;;;;;;;5035368;28;20290;-70
2023/10/16 07:06:34;;;;;;;7.45;3.63;;;;;;;;;;5034969;28;20113;-71
2023/10/16 07:09:05;;;;;;;8.20;3.92;;;;;;;;;;5052823;28;20017;-71
2023/10/16 07:11:30;;;;;;;9.63;3.40;;;;;;;;;;5052686;28;20496;-71
2023/10/16 07:13:56;;;;;;;8.40;3.30;;;;;;;;;;5053017;28;20021;-71
2023/10/16 07:16:22;;;;;;;12.70;3.42;;;;;;;;;;5052799;28;20096;-71
2023/10/16 07:18:53;;;;;;;8.90;3.55;;;;;;;;;;5034835;28;20020;-71
2023/10/16 07:21:19;;;;;;;7.20;3.33;;;;;;;;;;5052654;28;20017;-71
2023/10/16 07:23:44;;;;;;;7.10;3.30;;;;;;;;;;5052686;28;20032;-71
2023/10/16 07:26:09;;;;;;;9.98;3.30;;;;;;;;;;5052913;28;20017;-72
2023/10/16 07:28:35;;;;;;;8.73;3.33;;;;;;;;;;5034743;28;20325;-72
2023/10/16 07:31:02;;;;;;;6.70;3.50;;;;;;;;;;5052645;28;20104;-71
2023/10/16 07:33:27;;;;;;;7.70;3.20;;;;;;;;;;5052520;28;20020;-70
2023/10/16 07:35:53;;;;;;;8.70;3.20;;;;;;;;;;5052748;28;20488;-71
2023/10/16 07:38:20;;;;;;;8.07;3.45;;;;;;;;;;5052841;28;20051;-71
2023/10/16 07:40:51;;;;;;;8.20;3.10;;;;;;;;;;5034997;28;20017;-71
2023/10/16 07:43:16;;;;;;;8.52;3.10;;;;;;;;;;5052575;28;20460;-71
2023/10/16 07:45:45;;;;;;;9.30;2.92;;;;;;;;;;5052596;28;20024;-71
2023/10/16 07:48:20;;;;;;;7.55;2.92;;;;;;;;;;5034891;28;20027;-71
2023/10/16 07:50:50;;;;;;;6.38;2.75;;;;;;;;;;5052768;28;20092;-71
2023/10/16 07:53:18;;;;;;;7.55;2.80;;;;;;;;;;5035081;28;20021;-71
2023/10/16 07:55:50;;;;;;;9.85;2.80;;;;;;;;;;5056349;28;20495;-71
2023/10/16 07:58:17;;;;;;;7.47;3.10;;;;;;;;;;5056720;28;20017;-71
2023/10/16 08:00:56;;;;;;;6.57;2.53;;;;;;;;;;5056605;28;20490;-71
2023/10/16 08:03:21;;;;;;;5.72;2.40;;;;;;;;;;5038838;28;20450;-71
2023/10/16 08:05:47;;;;;;;7.33;2.50;;;;;;;;;;5057051;28;20155;-71
2023/10/16 08:08:12;;;;;;;7.60;2.57;;;;;;;;;;5057099;28;20294;-71
2023/10/16 08:10:41;;;;;;;7.10;2.65;;;;;;;;;;5048227;28;20323;-71
2023/10/16 08:13:13;;;;;;;4.25;2.30;;;;;;;;;;5077231;28;20048;-71
2023/10/16 08:15:44;;;;;;;7.13;2.45;;;;;;;;;;5078735;28;20053;-72
2023/10/16 08:18:10;;;;;;;5.28;2.50;;;;;;;;;;5078978;28;20037;-71
2023/10/16 08:23:21;;;;;;;8.85;2.10;;;;;;;;;;5079827;28;20023;-72
2023/10/16 08:25:47;;;;;;;5.40;2.13;;;;;;;;;;5063319;28;20028;-70
2023/10/16 08:28:24;;;;;;;4.07;1.90;;;;;;;;;;5080603;28;20001;-69
2023/10/16 08:30:51;;;;;;;7.75;2.00;;;;;;;;;;5080867;28;20030;-70
2023/10/16 08:33:16;;;;;;;3.85;1.83;;;;;;;;;;5063608;28;20017;-70
2023/10/16 08:35:42;;;;;;;5.60;2.10;;;;;;;;;;5080493;28;20025;-70
2023/10/16 08:38:12;;;;;;;4.75;1.70;;;;;;;;;;5063106;28;20015;-70
2023/10/16 08:40:42;;;;;;;5.28;1.60;;;;;;;;;;5079982;28;20033;-72
2023/10/16 08:43:08;;;;;;;5.72;1.60;;;;;;;;;;5079373;28;20013;-71
2023/10/16 08:45:33;;;;;;;4.38;1.27;;;;;;;;;;5079673;28;20032;-71
2023/10/16 08:48:00;;;;;;;6.28;1.50;;;;;;;;;;5073864;28;20021;-71
2023/10/16 08:50:40;;;;;;;7.10;1.45;;;;;;;;;;5058083;28;20017;-72
2023/10/16 08:53:05;;;;;;;3.92;1.30;;;;;;;;;;5057028;28;20096;-71
2023/10/16 08:55:31;;;;;;;5.22;1.23;;;;;;;;;;5056594;28;20060;-71
2023/10/16 08:57:57;;;;;;;2.58;1.13;;;;;;;;;;5056226;28;20024;-70
2023/10/16 09:00:23;;;;;;;3.13;0.93;;;;;;;;;;5055875;28;20021;-71
2023/10/16 09:02:51;;;;;;;2.38;0.98;;;;;;;;;;5037945;28;20013;-70
2023/10/16 09:05:16;;;;;;;3.60;0.90;;;;;;;;;;5054598;28;20024;-71
2023/10/16 09:07:41;;;;;;;5.60;1.13;;;;;;;;;;5055314;28;20376;-71
2023/10/16 09:10:10;;;;;;;6.45;1.40;;;;;;;;;;5054750;28;20025;-71
2023/10/16 09:12:44;;;;;;;5.28;1.27;;;;;;;;;;5037028;28;20052;-71
2023/10/16 09:15:12;;;;;;;6.18;1.10;;;;;;;;;;5054979;28;20066;-71
2023/10/16 09:17:38;;;;;;;2.60;1.00;;;;;;;;;;5054473;28;20366;-71
2023/10/16 09:20:13;;;;;;;2.83;1.13;;;;;;;;;;5054610;28;20045;-71
2023/10/16 09:22:42;;;;;;;3.15;0.93;;;;;;;;;;5054514;28;20047;-72
2023/10/16 09:25:08;;;;;;;4.05;2.17;;;;;;;;;;5036371;28;20025;-72
2023/10/16 09:27:36;;;;;;;2.20;1.20;;;;;;;;;;5036510;28;20475;-72
2023/10/16 09:30:08;;;;;;;4.22;1.00;;;;;;;;;;5054357;28;20021;-72
2023/10/16 09:32:39;;;;;;;2.63;1.00;;;;;;;;;;5036302;28;20020;-72
2023/10/16 09:35:30;;;;;;;3.55;1.02;;;;;;;;;;5054220;28;20021;-72
2023/10/16 09:37:53;;;;;;;4.25;0.82;;;;;;;;;;5053679;28;20388;-71
2023/10/16 09:43:05;;;;;;;5.10;1.00;;;;;;;;;;5054373;28;20091;-72
2023/10/16 09:45:34;;;;;;;4.38;1.25;;;;;;;;;;5036116;28;20025;-71
2023/10/16 09:48:09;;;;;;;1.83;0.80;;;;;;;;;;5053804;28;20376;-71
2023/10/16 09:50:36;;;;;;;6.60;1.05;;;;;;;;;;5053990;28;20027;-71
2023/10/16 09:53:01;;;;;;;2.05;0.80;;;;;;;;;;5053873;28;20043;-71
2023/10/16 09:55:30;;;;;;;3.90;0.75;;;;;;;;;;5053880;28;20040;-71
2023/10/16 09:57:56;;;;;;;2.00;0.82;;;;;;;;;;5035917;28;20017;-71
2023/10/16 10:02:54;;;;;;;4.70;0.98;;;;;;;;;;5053864;28;20054;-71
2023/10/16 10:05:31;;;;;;;3.13;0.93;;;;;;;;;;5035808;28;20025;-71
2023/10/16 10:07:59;;;;;;;5.00;0.80;;;;;;;;;;5053619;28;20016;-71
2023/10/16 10:13:03;;;;;;;3.13;0.77;;;;;;;;;;5053533;28;20136;-71
2023/10/16 10:15:33;;;;;;;3.67;1.00;;;;;;;;;;5053486;28;20017;-71
2023/10/16 10:18:17;;;;;;;4.65;1.00;;;;;;;;;;5053203;28;20023;-71
2023/10/16 10:20:44;;;;;;;3.75;1.00;;;;;;;;;;5053470;28;20017;-71
2023/10/16 10:23:13;;;;;;;4.80;1.00;;;;;;;;;;5053349;28;20024;-71
2023/10/16 10:25:41;;;;;;;4.45;0.82;;;;;;;;;;5053378;28;20049;-71
2023/10/16 10:28:22;;;;;;;4.47;1.07;;;;;;;;;;5053405;28;20130;-71
2023/10/16 10:30:49;;;;;;;2.80;0.90;;;;;;;;;;5053245;28;20465;-71
2023/10/16 10:33:37;;;;;;;5.47;0.80;;;;;;;;;;5053267;28;20075;-71
2023/10/16 10:36:21;;;;;;;3.88;1.15;;;;;;;;;;5035273;28;20027;-72
2023/10/16 10:38:46;;;;;;;5.93;1.05;;;;;;;;;;5035287;28;20025;-71
2023/10/16 10:41:13;;;;;;;3.65;0.60;;;;;;;;;;5053179;28;20392;-72
2023/10/16 10:43:39;;;;;;;6.28;1.23;;;;;;;;;;5053012;28;20017;-72
2023/10/16 10:46:07;;;;;;;4.25;1.02;;;;;;;;;;5053269;28;20100;-71
2023/10/16 10:48:37;;;;;;;4.60;1.10;;;;;;;;;;5034535;28;20430;-71
2023/10/16 10:51:03;;;;;;;3.03;0.77;;;;;;;;;;5051148;28;20088;-70
2023/10/16 10:53:29;;;;;;;7.95;0.85;;;;;;;;;;5052671;28;20032;-71
2023/10/16 10:55:55;;;;;;;4.10;0.70;;;;;;;;;;5053119;28;20380;-71
2023/10/16 10:58:23;;;;;;;4.47;0.95;;;;;;;;;;5035223;28;20491;-71
2023/10/16 11:00:50;;;;;;;9.32;1.30;;;;;;;;;;5052977;28;20017;-71
2023/10/16 11:03:32;;;;;;;5.03;0.77;;;;;;;;;;5052825;28;20044;-71
2023/10/16 11:05:57;;;;;;;7.55;0.95;;;;;;;;;;5053111;28;20078;-71
2023/10/16 11:08:26;;;;;;;6.27;1.20;;;;;;;;;;5053102;28;20048;-71
2023/10/16 11:10:51;;;;;;;6.63;0.90;;;;;;;;;;5052987;28;20259;-71
2023/10/16 11:13:18;;;;;;;3.58;0.80;;;;;;;;;;5052891;28;20069;-72
2023/10/16 11:15:53;;;;;;;5.43;1.20;;;;;;;;;;5052758;28;20021;-72
2023/10/16 11:18:18;;;;;;;8.00;1.05;;;;;;;;;;5052851;28;20009;-72
2023/10/16 11:20:46;;;;;;;9.43;1.50;;;;;;;;;;5053140;28;20049;-71
2023/10/16 11:23:14;;;;;;;4.50;0.88;;;;;;;;;;5052827;28;20021;-72
2023/10/16 11:25:44;;;;;;;8.20;1.73;;;;;;;;;;5052780;28;20028;-72
2023/10/16 11:28:09;;;;;;;4.90;1.05;;;;;;;;;;5052714;28;20017;-72
2023/10/16 11:30:43;;;;;;;9.45;1.20;;;;;;;;;;5056489;28;20021;-72
2023/10/16 11:33:09;;;;;;;4.18;1.48;;;;;;;;;;5038729;28;20431;-71
2023/10/16 11:35:34;;;;;;;7.95;2.03;;;;;;;;;;5056493;28;20025;-71
2023/10/16 11:38:04;;;;;;;6.35;1.35;;;;;;;;;;5056360;28;20499;-71
2023/10/16 11:40:33;;;;;;;3.50;1.00;;;;;;;;;;5038433;28;20020;-72
2023/10/16 11:42:59;;;;;;;5.32;1.08;;;;;;;;;;5056609;28;20491;-71
2023/10/16 11:45:30;;;;;;;6.18;1.08;;;;;;;;;;5037199;28;20009;-71
2023/10/16 11:50:40;;;;;;;5.93;1.20;;;;;;;;;;5056341;28;20078;-71
2023/10/16 11:53:08;;;;;;;6.93;1.15;;;;;;;;;;5038313;28;20108;-71
2023/10/16 11:55:37;;;;;;;7.65;1.70;;;;;;;;;;5056093;28;20013;-71
2023/10/16 11:58:11;;;;;;;5.60;1.10;;;;;;;;;;5056395;28;20021;-71
2023/10/16 12:00:42;;;;;;;3.33;1.00;;;;;;;;;;5038276;28;20017;-72
2023/10/16 12:03:08;;;;;;;3.42;0.98;;;;;;;;;;5056035;28;20017;-71
2023/10/16 12:05:34;;;;;;;3.40;0.93;;;;;;;;;;5056048;28;20372;-71
2023/10/16 12:07:59;;;;;;;6.15;1.20;;;;;;;;;;5038208;28;20013;-72
2023/10/16 12:10:28;;;;;;;6.40;1.00;;;;;;;;;;5055936;28;20028;-71
2023/10/16 12:12:55;;;;;;;5.55;1.17;;;;;;;;;;5037818;28;20044;-71
2023/10/16 12:15:31;;;;;;;2.35;0.90;;;;;;;;;;5055846;28;20025;-71
2023/10/16 12:17:57;;;;;;;5.25;1.15;;;;;;;;;;5055728;28;20464;-71
2023/10/16 12:20:26;;;;;;;4.00;1.30;;;;;;;;;;5055515;28;20013;-71
2023/10/16 12:22:52;;;;;;;7.90;1.58;;;;;;;;;;5055506;28;20419;-71
2023/10/16 12:25:17;;;;;;;4.63;1.00;;;;;;;;;;5055500;28;20019;-72
2023/10/16 12:27:43;;;;;;;7.93;1.10;;;;;;;;;;5055790;28;20020;-72
2023/10/16 12:30:27;;;;;;;7.93;1.10;;;;;;;;;;5037729;28;20476;-72
2023/10/16 12:32:54;;;;;;;5.57;0.80;;;;;;;;;;5037898;28;20017;-71
2023/10/16 12:35:19;;;;;;;7.63;1.15;;;;;;;;;;5055302;28;20357;-71
2023/10/16 12:37:44;;;;;;;9.98;1.25;;;;;;;;;;5037488;28;20013;-71
2023/10/16 12:40:27;;;;;;;5.70;1.20;;;;;;;;;;5036982;28;20017;-71
2023/10/16 12:42:53;;;;;;;5.68;1.30;;;;;;;;;;5037292;28;20024;-71
2023/10/16 12:45:22;;;;;;;5.22;1.17;;;;;;;;;;5055476;28;20039;-71
2023/10/16 12:47:48;;;;;;;5.00;1.23;;;;;;;;;;5055234;28;20013;-71
2023/10/16 12:50:13;;;;;;;4.15;1.05;;;;;;;;;;5055016;28;20017;-71
2023/10/16 12:52:39;;;;;;;6.73;1.37;;;;;;;;;;5055098;28;20017;-72
2023/10/16 12:55:09;;;;;;;6.47;1.10;;;;;;;;;;5055019;28;20064;-71
2023/10/16 12:57:34;;;;;;;4.45;1.20;;;;;;;;;;5055082;28;20017;-71
2023/10/16 12:59:59;;;;;;;6.13;1.10;;;;;;;;;;5037019;28;20033;-73
2023/10/16 13:02:27;;;;;;;6.07;1.13;;;;;;;;;;5054970;28;20083;-72
2023/10/16 13:04:53;;;;;;;5.88;1.42;;;;;;;;;;5036892;28;20418;-71
2023/10/16 13:07:20;;;;;;;4.70;1.00;;;;;;;;;;5054777;28;20065;-71
2023/10/16 13:09:47;;;;;;;9.38;1.08;;;;;;;;;;5054771;28;20017;-71
2023/10/16 13:12:13;;;;;;;3.53;1.15;;;;;;;;;;5054641;28;20567;-72
2023/10/16 13:14:38;;;;;;;7.55;1.20;;;;;;;;;;5054730;28;20376;-72
2023/10/16 13:17:08;;;;;;;14.87;1.53;;;;;;;;;;5054505;28;20032;-72
2023/10/16 13:19:33;;;;;;;6.05;1.23;;;;;;;;;;5054751;28;20468;-71
2023/10/16 13:22:07;;;;;;;4.63;1.20;;;;;;;;;;5054518;28;20096;-71
2023/10/16 13:24:34;;;;;;;8.02;1.83;;;;;;;;;;5036328;28;20024;-72
2023/10/16 13:26:59;;;;;;;8.38;1.40;;;;;;;;;;5036646;28;20017;-71
2023/10/16 13:29:25;;;;;;;5.93;1.20;;;;;;;;;;5054461;28;20024;-71
2023/10/16 13:31:53;;;;;;;4.03;1.02;;;;;;;;;;5054267;28;20028;-72
2023/10/16 13:34:18;;;;;;;9.32;1.27;;;;;;;;;;5054222;28;20021;-72
2023/10/16 13:37:00;;;;;;;4.40;0.90;;;;;;;;;;5054185;28;20027;-71
2023/10/16 13:39:26;;;;;;;9.18;1.27;;;;;;;;;;5054196;28;20071;-71
2023/10/16 13:41:51;;;;;;;5.03;0.80;;;;;;;;;;5054211;28;20392;-70
2023/10/16 13:44:20;;;;;;;5.22;1.00;;;;;;;;;;5053988;28;20468;-71
2023/10/16 13:46:46;;;;;;;3.13;0.90;;;;;;;;;;5053965;28;20024;-71
2023/10/16 13:49:14;;;;;;;6.85;1.40;;;;;;;;;;5036108;28;20028;-72
2023/10/16 13:51:39;;;;;;;6.10;0.93;;;;;;;;;;5035397;28;20047;-71
2023/10/16 13:54:11;;;;;;;5.60;1.30;;;;;;;;;;5053973;28;20020;-71
2023/10/16 13:56:36;;;;;;;5.07;1.13;;;;;;;;;;5053502;28;20036;-71
2023/10/16 13:59:03;;;;;;;4.17;1.00;;;;;;;;;;5053392;28;20021;-71
2023/10/16 14:01:30;;;;;;;7.60;1.15;;;;;;;;;;5053670;28;20275;-70
2023/10/16 14:03:58;;;;;;;6.53;1.50;;;;;;;;;;5035696;28;20174;-70
2023/10/16 14:06:24;;;;;;;5.88;1.48;;;;;;;;;;5035578;28;20024;-71
2023/10/16 14:08:49;;;;;;;5.38;1.35;;;;;;;;;;5053397;28;20028;-71
2023/10/16 14:11:14;;;;;;;6.15;1.23;;;;;;;;;;5053434;28;20021;-71
2023/10/16 14:13:40;;;;;;;4.60;1.30;;;;;;;;;;5053660;28;20086;-71
2023/10/16 14:16:17;;;;;;;6.60;1.63;;;;;;;;;;5053236;28;20263;-71
2023/10/16 14:18:43;;;;;;;3.28;0.75;;;;;;;;;;5052849;28;20024;-71
2023/10/16 14:21:11;;;;;;;4.27;1.23;;;;;;;;;;5053389;28;20024;-71
2023/10/16 14:23:38;;;;;;;4.35;1.10;;;;;;;;;;5035273;28;20287;-72
2023/10/16 14:26:10;;;;;;;3.92;1.10;;;;;;;;;;5053437;28;20059;-72
2023/10/16 14:28:46;;;;;;;6.47;1.25;;;;;;;;;;5035513;28;20021;-72
2023/10/16 14:31:14;;;;;;;7.07;1.25;;;;;;;;;;5053253;28;20052;-72
2023/10/16 14:33:39;;;;;;;5.40;1.30;;;;;;;;;;5053431;28;20070;-72
2023/10/16 14:36:05;;;;;;;5.55;1.30;;;;;;;;;;5053249;28;20017;-72
2023/10/16 14:38:31;;;;;;;5.38;1.10;;;;;;;;;;5035272;28;20044;-71
2023/10/16 14:41:02;;;;;;;3.53;1.10;;;;;;;;;;5052947;28;20477;-72
2023/10/16 14:43:27;;;;;;;5.00;1.10;;;;;;;;;;5053133;28;20036;-72
2023/10/16 14:45:54;;;;;;;5.10;1.13;;;;;;;;;;5053456;28;20013;-71
2023/10/16 14:48:19;;;;;;;7.75;1.30;;;;;;;;;;5053020;28;20339;-72
2023/10/16 14:50:47;;;;;;;6.47;1.10;;;;;;;;;;5035230;28;20110;-72
2023/10/16 14:53:12;;;;;;;5.97;1.27;;;;;;;;;;5052884;28;20041;-72
2023/10/16 14:55:39;;;;;;;5.93;1.42;;;;;;;;;;5053176;28;20048;-72
2023/10/16 14:58:05;;;;;;;5.45;1.42;;;;;;;;;;5053072;28;20016;-71
2023/10/16 15:00:37;;;;;;;4.90;1.30;;;;;;;;;;5053034;28;20025;-72
2023/10/16 15:03:03;;;;;;;4.28;1.15;;;;;;;;;;5036110;28;20017;-72
2023/10/16 15:05:28;;;;;;;4.78;1.00;;;;;;;;;;5039100;28;20087;-72
2023/10/16 15:07:53;;;;;;;4.72;1.10;;;;;;;;;;5056909;28;20052;-71
2023/10/16 15:10:19;;;;;;;5.88;1.45;;;;;;;;;;5039169;28;20484;-72
2023/10/16 15:12:44;;;;;;;6.37;1.40;;;;;;;;;;5056701;28;20053;-71
2023/10/16 15:15:10;;;;;;;4.07;1.58;;;;;;;;;;5038879;28;20264;-71
2023/10/16 15:17:36;;;;;;;6.40;1.40;;;;;;;;;;5038895;28;20016;-72
2023/10/16 15:20:03;;;;;;;6.32;1.50;;;;;;;;;;5056898;28;20024;-71
2023/10/16 15:22:29;;;;;;;9.40;1.42;;;;;;;;;;5038840;28;20047;-71
2023/10/16 15:24:54;;;;;;;4.20;1.55;;;;;;;;;;5056595;28;20024;-72
2023/10/16 15:27:19;;;;;;;5.33;1.60;;;;;;;;;;5056668;28;20009;-72
2023/10/16 15:29:45;;;;;;;5.57;1.37;;;;;;;;;;5056566;28;20337;-72
2023/10/16 15:32:10;;;;;;;6.18;1.58;;;;;;;;;;5038804;28;20427;-71
2023/10/16 15:34:35;;;;;;;6.37;1.70;;;;;;;;;;5056333;28;20073;-72
2023/10/16 15:37:00;;;;;;;6.07;1.88;;;;;;;;;;5038600;28;20275;-71
2023/10/16 15:39:28;;;;;;;6.75;2.00;;;;;;;;;;5056364;28;20021;-72
2023/10/16 15:41:59;;;;;;;12.27;2.38;;;;;;;;;;5056384;28;20383;-72
2023/10/16 15:44:24;;;;;;;8.88;2.38;;;;;;;;;;5056267;28;20033;-71
2023/10/16 15:46:49;;;;;;;9.50;2.50;;;;;;;;;;5056474;28;20409;-71
2023/10/16 15:49:19;;;;;;;10.13;2.60;;;;;;;;;;5038430;28;20020;-71
2023/10/16 15:51:44;;;;;;;9.80;3.00;;;;;;;;;;5056266;28;20266;-71
2023/10/16 15:54:14;;;;;;;6.90;3.10;;;;;;;;;;5038480;28;20025;-71
2023/10/16 15:56:39;;;;;;;8.27;2.88;;;;;;;;;;5056231;28;20037;-72
2023/10/16 15:59:05;;;;;;;7.18;2.50;;;;;;;;;;5056065;28;20148;-72
2023/10/16 16:01:30;;;;;;;7.47;2.83;;;;;;;;;;5038241;28;20021;-71
2023/10/16 16:03:57;;;;;;;4.35;2.03;;;;;;;;;;5038301;28;20021;-72
2023/10/16 16:06:24;;;;;;;7.05;2.35;;;;;;;;;;5038202;28;20379;-71
2023/10/16 16:08:49;;;;;;;10.00;2.63;;;;;;;;;;5055749;28;20021;-72
2023/10/16 16:11:14;;;;;;;6.47;2.33;;;;;;;;;;5055669;28;20838;-72
2023/10/16 16:13:40;;;;;;;6.60;2.10;;;;;;;;;;5055745;28;20268;-72
2023/10/16 16:16:09;;;;;;;7.82;2.35;;;;;;;;;;5037169;28;20358;-71
2023/10/16 16:18:34;;;;;;;8.77;2.70;;;;;;;;;;5055766;28;20025;-71
2023/10/16 16:21:00;;;;;;;6.07;2.53;;;;;;;;;;5055859;28;20027;-71
2023/10/16 16:23:25;;;;;;;14.63;3.20;;;;;;;;;;5055546;28;20468;-72
2023/10/16 16:25:53;;;;;;;5.78;3.22;;;;;;;;;;5055629;28;20070;-71
2023/10/16 16:28:18;;;;;;;9.27;3.47;;;;;;;;;;5037630;28;20013;-72
2023/10/16 16:30:43;;;;;;;11.50;4.07;;;;;;;;;;5055555;28;20388;-73
2023/10/16 16:33:09;;;;;;;8.83;3.60;;;;;;;;;;5055382;28;20021;-73
2023/10/16 16:35:35;;;;;;;13.88;4.05;;;;;;;;;;5055544;28;20013;-72
2023/10/16 16:38:05;;;;;;;10.05;4.05;;;;;;;;;;5055280;28;20565;-72
2023/10/16 16:40:30;;;;;;;7.28;3.60;;;;;;;;;;5055370;28;20065;-72
2023/10/16 16:42:56;;;;;;;9.00;4.80;;;;;;;;;;5055396;28;20028;-72